Time;durP1;ratioP1;P1;durP2;ratioP2;P2;SDS_P1;SDS_P2;PMS_P1;PMS_P2;Temp;Humidity;BMP_temperature;BMP_pressure;BME280_temperature;BME280_humidity;BME280_pressure;Samples;Min_cycle;Max_cycle;Signal;HPM_P1;HPM_P2
2022/01/29 00:00:33;;;;;;;26.37;15.93;;;5.00;18.20;;;;;;5136020;27;20888;-57
2022/01/29 00:03:00;;;;;;;24.20;16.20;;;5.00;1.00;;;;;;5140533;27;20515;-54
2022/01/29 00:05:27;;;;;;;24.27;16.13;;;5.00;1.00;;;;;;5137727;27;20503;-54
2022/01/29 00:07:54;;;;;;;33.87;17.40;;;5.00;1.00;;;;;;5147312;27;20840;-55
2022/01/29 00:10:22;;;;;;;23.53;15.50;;;5.00;1.00;;;;;;5138886;27;20454;-57
2022/01/29 00:12:52;;;;;;;21.77;15.70;;;5.00;99.90;;;;;;5131061;27;20455;-53
2022/01/29 00:15:20;;;;;;;27.83;17.20;;;5.00;99.90;;;;;;5139664;27;20550;-50
2022/01/29 00:17:47;;;;;;;25.10;15.17;;;5.10;99.90;;;;;;5140567;27;20482;-52
2022/01/29 00:20:14;;;;;;;23.13;15.67;;;5.10;99.90;;;;;;5138939;27;20454;-53
2022/01/29 00:22:41;;;;;;;24.70;15.17;;;5.10;99.90;;;;;;5135130;27;20501;-54
2022/01/29 00:25:12;;;;;;;26.60;15.03;;;5.10;99.90;;;;;;5139622;27;20444;-51
2022/01/29 00:27:40;;;;;;;28.67;16.10;;;5.20;96.80;;;;;;5140149;27;20459;-57
2022/01/29 00:30:13;;;;;;;27.73;16.70;;;5.10;99.90;;;;;;5139140;27;20467;-57
2022/01/29 00:32:42;;;;;;;26.10;17.40;;;5.10;99.90;;;;;;5137186;27;20444;-55
2022/01/29 00:35:10;;;;;;;27.87;18.80;;;5.20;83.50;;;;;;5138572;27;20450;-52
2022/01/29 00:37:37;;;;;;;37.90;20.03;;;5.20;99.90;;;;;;5139133;27;20543;-55
2022/01/29 00:40:10;;;;;;;34.20;21.67;;;5.10;99.90;;;;;;5138783;27;20573;-57
2022/01/29 00:42:37;;;;;;;30.43;20.50;;;5.20;1.00;;;;;;5118977;27;20473;-50
2022/01/29 00:45:13;;;;;;;29.77;18.53;;;5.20;1.00;;;;;;5119486;28;20994;-56
2022/01/29 00:47:42;;;;;;;27.43;19.17;;;5.20;1.00;;;;;;5137329;27;20515;-51
2022/01/29 00:50:11;;;;;;;30.20;18.27;;;5.20;55.40;;;;;;5137571;27;20462;-57
2022/01/29 00:52:39;;;;;;;31.50;19.10;;;5.20;99.90;;;;;;5139213;27;20445;-50
2022/01/29 00:55:07;;;;;;;32.93;22.07;;;5.20;1.00;;;;;;5121436;27;20473;-55
2022/01/29 00:57:37;;;;;;;32.37;19.47;;;5.20;24.90;;;;;;5132873;27;20489;-56
2022/01/29 01:00:07;;;;;;;30.97;20.83;;;5.20;99.90;;;;;;5137335;27;20445;-56
2022/01/29 01:02:34;;;;;;;33.23;21.30;;;5.20;99.90;;;;;;5138170;27;20466;-55
2022/01/29 01:05:04;;;;;;;35.17;20.60;;;5.20;99.90;;;;;;5122416;27;20464;-54
2022/01/29 01:07:31;;;;;;;29.20;20.43;;;5.20;1.00;;;;;;5128381;27;20455;-51
2022/01/29 01:09:59;;;;;;;33.43;21.20;;;5.20;21.00;;;;;;5129350;27;20438;-56
2022/01/29 01:12:29;;;;;;;33.07;19.37;;;5.20;99.90;;;;;;5134895;27;20508;-53
2022/01/29 01:14:56;;;;;;;33.43;21.13;;;5.20;99.90;;;;;;5123096;27;20464;-53
2022/01/29 01:17:27;;;;;;;31.03;19.70;;;5.20;1.00;;;;;;5123447;27;20465;-54
2022/01/29 01:19:54;;;;;;;36.13;21.00;;;5.20;1.00;;;;;;5138553;27;20477;-56
2022/01/29 01:22:21;;;;;;;31.13;19.97;;;5.30;13.30;;;;;;5138363;27;20530;-54
2022/01/29 01:24:51;;;;;;;39.67;22.77;;;5.30;1.00;;;;;;5138921;27;20522;-53
2022/01/29 01:27:24;;;;;;;35.50;21.77;;;5.30;1.00;;;;;;5138744;27;20508;-55
2022/01/29 01:29:51;;;;;;;36.07;23.83;;;5.30;1.00;;;;;;5119968;27;20455;-58
2022/01/29 01:32:18;;;;;;;33.90;22.37;;;5.30;1.00;;;;;;5123795;27;20459;-57
2022/01/29 01:34:57;;;;;;;40.60;22.13;;;5.30;1.00;;;;;;5124040;27;20459;-56
2022/01/29 01:37:34;;;;;;;35.00;21.33;;;5.30;1.00;;;;;;5137587;27;20514;-56
2022/01/29 01:40:01;;;;;;;33.27;22.77;;;5.30;99.90;;;;;;5132557;27;20744;-57
2022/01/29 01:42:29;;;;;;;39.97;22.07;;;5.30;1.00;;;;;;5138691;27;20884;-57
2022/01/29 01:44:57;;;;;;;38.43;21.80;;;5.20;1.00;;;;;;5138651;27;20493;-56
2022/01/29 01:47:24;;;;;;;32.97;21.30;;;5.30;21.30;;;;;;5138468;27;20455;-56
2022/01/29 01:49:53;;;;;;;39.50;22.60;;;5.30;90.30;;;;;;5138688;27;20515;-53
2022/01/29 01:52:20;;;;;;;42.90;23.50;;;5.30;99.90;;;;;;5133232;27;20794;-54
2022/01/29 01:54:47;;;;;;;30.83;21.93;;;5.30;99.90;;;;;;5137620;27;20523;-56
2022/01/29 01:57:17;;;;;;;37.70;24.17;;;5.30;1.00;;;;;;5136487;27;20543;-55
2022/01/29 01:59:44;;;;;;;38.43;21.17;;;5.30;1.00;;;;;;5138721;27;20505;-56
2022/01/29 02:02:13;;;;;;;35.10;21.40;;;5.20;1.00;;;;;;5128063;27;20464;-57
2022/01/29 02:04:40;;;;;;;31.40;21.80;;;5.30;1.00;;;;;;5117742;28;20520;-54
2022/01/29 02:07:09;;;;;;;36.63;21.10;;;5.30;24.00;;;;;;5127693;27;20463;-58
2022/01/29 02:09:38;;;;;;;30.17;21.67;;;5.30;95.70;;;;;;5137554;27;20433;-55
2022/01/29 02:12:08;;;;;;;32.53;20.03;;;5.20;99.90;;;;;;5123850;27;20472;-56
2022/01/29 02:14:39;;;;;;;39.20;21.03;;;5.30;99.90;;;;;;5117754;28;20471;-58
2022/01/29 02:17:07;;;;;;;34.20;21.30;;;5.30;99.90;;;;;;5117786;28;20495;-56
2022/01/29 02:19:35;;;;;;;31.83;20.47;;;5.20;99.90;;;;;;5117430;27;20894;-58
2022/01/29 02:22:04;;;;;;;36.87;18.90;;;5.30;99.90;;;;;;5133402;27;20509;-56
2022/01/29 02:24:32;;;;;;;36.33;21.70;;;5.30;87.20;;;;;;5123018;27;20478;-56
2022/01/29 02:26:59;;;;;;;37.27;21.53;;;5.30;4.00;;;;;;5137763;27;20455;-53
2022/01/29 02:29:26;;;;;;;40.63;22.10;;;5.30;1.00;;;;;;5125526;27;20871;-56
2022/01/29 02:31:54;;;;;;;33.67;19.57;;;5.30;1.00;;;;;;5132361;27;20425;-57
2022/01/29 02:34:22;;;;;;;30.93;18.20;;;5.30;1.00;;;;;;5137838;27;20884;-56
2022/01/29 02:36:49;;;;;;;30.20;19.77;;;5.30;1.00;;;;;;5122440;27;20483;-56
2022/01/29 02:39:19;;;;;;;37.13;22.70;;;5.30;1.00;;;;;;5117113;28;20459;-56
2022/01/29 02:41:47;;;;;;;33.43;21.80;;;5.30;1.00;;;;;;5127558;27;20491;-52
2022/01/29 02:44:22;;;;;;;35.80;21.70;;;5.40;99.90;;;;;;5136660;27;20812;-55
2022/01/29 02:46:52;;;;;;;30.67;21.37;;;5.30;99.90;;;;;;5137482;27;20776;-51
2022/01/29 02:49:27;;;;;;;35.00;21.73;;;5.40;1.00;;;;;;5116356;28;20924;-53
2022/01/29 02:51:55;;;;;;;36.00;21.90;;;5.40;1.00;;;;;;5121191;27;20466;-56
2022/01/29 02:54:25;;;;;;;30.77;19.43;;;5.40;99.90;;;;;;5116950;28;20767;-53
2022/01/29 02:56:53;;;;;;;31.30;21.10;;;5.30;99.90;;;;;;5131321;27;20529;-53
2022/01/29 02:59:23;;;;;;;44.63;22.47;;;5.30;1.00;;;;;;5137271;28;20448;-56
2022/01/29 03:01:50;;;;;;;39.30;23.03;;;5.40;1.00;;;;;;5136253;28;20460;-57
2022/01/29 03:04:17;;;;;;;35.43;22.57;;;5.30;1.00;;;;;;5136603;28;20455;-56
2022/01/29 03:06:44;;;;;;;33.77;22.23;;;5.30;99.90;;;;;;5137672;28;20454;-58
2022/01/29 03:09:11;;;;;;;35.10;21.37;;;5.30;99.90;;;;;;5136413;28;20781;-54
2022/01/29 03:11:40;;;;;;;36.07;22.90;;;5.30;99.90;;;;;;5137345;28;20462;-54
2022/01/29 03:14:09;;;;;;;39.60;22.40;;;5.30;99.90;;;;;;5134021;28;20470;-56
2022/01/29 03:16:36;;;;;;;41.07;22.50;;;5.30;99.90;;;;;;5137173;28;20471;-58
2022/01/29 03:19:03;;;;;;;37.77;24.30;;;5.30;99.90;;;;;;5130098;28;20456;-58
2022/01/29 03:21:30;;;;;;;35.10;22.00;;;5.30;99.90;;;;;;5116624;28;20879;-57
2022/01/29 03:23:57;;;;;;;34.67;22.13;;;5.30;99.90;;;;;;5130523;28;20465;-59
2022/01/29 03:26:24;;;;;;;32.83;21.47;;;5.30;99.90;;;;;;5134347;28;20429;-59
2022/01/29 03:28:52;;;;;;;32.77;20.80;;;5.20;99.90;;;;;;5120814;28;20891;-58
2022/01/29 03:31:20;;;;;;;36.70;23.50;;;5.30;99.90;;;;;;5136221;28;20515;-57
2022/01/29 03:33:47;;;;;;;34.97;20.70;;;5.20;99.90;;;;;;5136061;28;20497;-56
2022/01/29 03:36:14;;;;;;;37.60;21.10;;;5.20;99.90;;;;;;5136856;28;20460;-59
2022/01/29 03:38:41;;;;;;;33.43;21.27;;;5.30;99.90;;;;;;5133436;28;20460;-56
2022/01/29 03:41:13;;;;;;;41.23;22.53;;;5.30;99.90;;;;;;5116372;28;20487;-52
2022/01/29 03:43:44;;;;;;;35.23;21.47;;;5.20;99.90;;;;;;5119383;28;20462;-57
2022/01/29 03:46:13;;;;;;;33.80;22.67;;;5.30;99.90;;;;;;5136003;28;20456;-53
2022/01/29 03:48:40;;;;;;;31.17;21.17;;;5.20;99.90;;;;;;5137147;28;20755;-53
2022/01/29 03:51:07;;;;;;;36.47;20.20;;;5.20;99.90;;;;;;5137007;28;20952;-55
2022/01/29 03:53:34;;;;;;;31.40;21.87;;;5.20;99.90;;;;;;5133739;28;20459;-55
2022/01/29 03:56:01;;;;;;;36.07;20.93;;;5.30;99.90;;;;;;5130454;27;20458;-58
2022/01/29 03:58:28;;;;;;;32.03;21.87;;;5.30;99.90;;;;;;5122200;27;20512;-56
2022/01/29 04:00:55;;;;;;;29.73;22.43;;;5.30;99.90;;;;;;5133140;27;20434;-58
2022/01/29 04:03:24;;;;;;;39.43;20.67;;;5.30;99.90;;;;;;5140511;27;20455;-55
2022/01/29 04:05:51;;;;;;;28.70;18.63;;;5.30;99.90;;;;;;5139298;27;20511;-58
2022/01/29 04:08:18;;;;;;;29.80;18.00;;;5.30;99.90;;;;;;5120255;28;20509;-58
2022/01/29 04:10:47;;;;;;;31.87;19.80;;;5.30;99.90;;;;;;5136898;27;20441;-56
2022/01/29 04:13:15;;;;;;;27.17;18.07;;;5.30;99.90;;;;;;5140755;27;20462;-58
2022/01/29 04:15:45;;;;;;;25.63;17.37;;;5.20;99.90;;;;;;5120480;28;20463;-59
2022/01/29 04:18:12;;;;;;;28.57;18.17;;;5.30;99.90;;;;;;5124343;27;20487;-59
2022/01/29 04:20:40;;;;;;;25.03;17.53;;;5.30;99.90;;;;;;5133105;27;20521;-57
2022/01/29 04:23:07;;;;;;;29.57;19.03;;;5.30;99.90;;;;;;5121009;28;20467;-57
2022/01/29 04:25:34;;;;;;;26.80;17.83;;;5.30;99.90;;;;;;5136089;27;20483;-56
2022/01/29 04:28:03;;;;;;;31.67;18.47;;;5.30;99.90;;;;;;5141112;27;20801;-59
2022/01/29 04:30:32;;;;;;;33.90;20.17;;;5.30;99.90;;;;;;5139911;27;20817;-57
2022/01/29 04:33:04;;;;;;;25.93;17.27;;;5.30;99.90;;;;;;5140458;27;20891;-58
2022/01/29 04:35:34;;;;;;;25.97;17.80;;;5.30;99.90;;;;;;5138787;27;20455;-58
2022/01/29 04:38:03;;;;;;;24.60;16.80;;;5.40;99.90;;;;;;5140255;27;20864;-58
2022/01/29 04:40:30;;;;;;;22.50;14.77;;;5.40;99.90;;;;;;5139260;27;20490;-58
2022/01/29 04:42:57;;;;;;;23.60;16.53;;;5.40;99.90;;;;;;5139313;27;20535;-54
2022/01/29 04:45:24;;;;;;;24.10;16.43;;;5.40;99.90;;;;;;5139341;27;20484;-57
2022/01/29 04:47:51;;;;;;;20.47;14.57;;;5.40;99.90;;;;;;5126887;27;20510;-57
2022/01/29 04:50:18;;;;;;;18.30;12.87;;;5.40;99.90;;;;;;5119454;27;20459;-56
2022/01/29 04:52:45;;;;;;;19.57;12.80;;;5.40;99.90;;;;;;5134594;27;20843;-56
2022/01/29 04:55:13;;;;;;;18.53;13.30;;;5.40;99.90;;;;;;5139584;27;20523;-58
2022/01/29 04:57:41;;;;;;;17.97;12.10;;;5.40;99.90;;;;;;5125468;27;20488;-58
2022/01/29 05:00:11;;;;;;;23.53;11.73;;;5.40;99.90;;;;;;5119019;28;20496;-56
2022/01/29 05:02:39;;;;;;;16.57;12.30;;;5.40;99.90;;;;;;5138545;27;20527;-58
2022/01/29 05:05:09;;;;;;;13.97;11.57;;;5.40;99.90;;;;;;5139669;27;20485;-57
2022/01/29 05:07:36;;;;;;;15.27;10.80;;;5.40;99.90;;;;;;5138312;27;20437;-59
2022/01/29 05:10:03;;;;;;;14.47;11.53;;;5.40;99.90;;;;;;5135931;27;20466;-56
2022/01/29 05:12:46;;;;;;;14.57;10.77;;;5.40;99.90;;;;;;5139381;27;20433;-57
2022/01/29 05:15:23;;;;;;;15.13;10.77;;;5.40;99.90;;;;;;5118887;28;20483;-57
2022/01/29 05:28:58;;;;;;;15.20;11.13;;;5.40;99.90;;;;;;5134226;27;20446;-57
2022/01/29 05:31:27;;;;;;;11.90;10.13;;;5.40;99.90;;;;;;5130232;27;20459;-59
2022/01/29 05:33:54;;;;;;;16.80;11.90;;;5.50;99.90;;;;;;5127701;27;20828;-59
2022/01/29 05:36:21;;;;;;;17.20;12.00;;;5.50;99.90;;;;;;5127345;27;20508;-60
2022/01/29 05:38:48;;;;;;;15.00;10.97;;;5.60;99.90;;;;;;5132909;27;20497;-60
2022/01/29 05:41:16;;;;;;;17.93;11.83;;;5.60;99.90;;;;;;5118139;27;20466;-59
2022/01/29 05:43:43;;;;;;;15.20;11.90;;;5.50;99.90;;;;;;5119313;27;20455;-56
2022/01/29 05:46:16;;;;;;;15.07;10.50;;;5.50;99.90;;;;;;5118087;28;20483;-56
2022/01/29 05:48:44;;;;;;;15.40;11.60;;;5.50;99.90;;;;;;5133974;27;20426;-59
2022/01/29 05:51:11;;;;;;;13.97;11.00;;;5.60;99.90;;;;;;5136176;27;20495;-57
2022/01/29 05:53:39;;;;;;;15.50;11.07;;;5.60;99.90;;;;;;5138245;27;20459;-58
2022/01/29 05:56:06;;;;;;;16.97;12.00;;;5.60;99.90;;;;;;5127897;27;20980;-59
2022/01/29 05:58:33;;;;;;;14.83;11.50;;;5.60;99.90;;;;;;5123699;27;20914;-57
2022/01/29 06:01:01;;;;;;;15.60;12.73;;;5.60;99.90;;;;;;5131069;27;20470;-59
2022/01/29 06:03:29;;;;;;;20.83;13.47;;;5.60;99.90;;;;;;5120962;27;20875;-58
2022/01/29 06:05:56;;;;;;;23.17;14.67;;;5.60;99.90;;;;;;5137278;27;20511;-56
2022/01/29 06:08:23;;;;;;;21.10;13.83;;;5.60;99.90;;;;;;5138869;27;20454;-59
2022/01/29 06:10:53;;;;;;;18.20;14.00;;;5.60;99.90;;;;;;5137359;27;20832;-59
2022/01/29 06:13:20;;;;;;;18.47;13.83;;;5.70;99.90;;;;;;5118236;28;20463;-59
2022/01/29 06:15:52;;;;;;;18.93;13.80;;;5.70;99.90;;;;;;5120764;27;20456;-59
2022/01/29 06:18:21;;;;;;;21.47;14.73;;;5.70;99.90;;;;;;5117652;28;20483;-60
2022/01/29 06:20:57;;;;;;;20.20;14.53;;;5.70;99.90;;;;;;5124726;27;20454;-58
2022/01/29 06:23:29;;;;;;;17.93;14.33;;;5.70;99.90;;;;;;5129033;27;20430;-58
2022/01/29 06:25:57;;;;;;;24.03;16.83;;;5.70;99.90;;;;;;5123368;27;20466;-59
2022/01/29 06:28:24;;;;;;;20.43;15.87;;;5.70;99.90;;;;;;5121942;27;20877;-58
2022/01/29 06:30:51;;;;;;;22.77;16.93;;;5.80;99.90;;;;;;5138986;27;20433;-60
2022/01/29 06:33:18;;;;;;;22.40;17.50;;;5.80;99.90;;;;;;5136281;27;20433;-57
2022/01/29 06:35:45;;;;;;;28.77;17.77;;;5.80;99.90;;;;;;5130601;27;20427;-62
2022/01/29 06:38:15;;;;;;;22.67;16.73;;;5.80;99.90;;;;;;5138979;27;20914;-63
2022/01/29 06:40:43;;;;;;;27.30;18.40;;;5.70;99.90;;;;;;5138888;27;21010;-62
2022/01/29 06:43:13;;;;;;;26.67;20.10;;;5.80;99.90;;;;;;5122781;27;20463;-62
2022/01/29 06:45:42;;;;;;;26.30;18.40;;;5.80;99.90;;;;;;5127958;27;20866;-62
2022/01/29 06:48:10;;;;;;;31.17;20.43;;;5.70;99.90;;;;;;5138770;27;20503;-63
2022/01/29 06:50:37;;;;;;;25.00;18.70;;;5.80;99.90;;;;;;5138612;27;20447;-63
2022/01/29 06:53:05;;;;;;;28.00;19.90;;;5.80;99.90;;;;;;5137854;27;20495;-63
2022/01/29 06:55:34;;;;;;;31.70;20.70;;;5.80;99.90;;;;;;5138607;27;20887;-63
2022/01/29 06:58:01;;;;;;;26.00;19.37;;;5.90;99.90;;;;;;5130324;27;20486;-63
2022/01/29 07:00:31;;;;;;;33.10;20.67;;;5.80;99.90;;;;;;5138721;27;20437;-63
2022/01/29 07:03:01;;;;;;;27.50;19.40;;;5.80;99.90;;;;;;5118127;28;20470;-63
2022/01/29 07:05:28;;;;;;;36.53;21.30;;;5.90;99.90;;;;;;5123999;28;20458;-63
2022/01/29 07:07:55;;;;;;;33.57;22.30;;;5.90;99.90;;;;;;5134808;28;20436;-63
2022/01/29 07:10:25;;;;;;;28.60;19.80;;;5.90;99.90;;;;;;5138139;28;20459;-63
2022/01/29 07:12:54;;;;;;;32.33;21.20;;;5.90;99.90;;;;;;5137070;28;20765;-63
2022/01/29 07:15:21;;;;;;;34.50;23.03;;;5.90;99.90;;;;;;5137764;28;20458;-63
2022/01/29 07:17:48;;;;;;;33.60;22.87;;;6.00;99.90;;;;;;5137607;28;20486;-63
2022/01/29 07:20:15;;;;;;;39.63;23.33;;;6.00;99.90;;;;;;5136549;28;20824;-63
2022/01/29 07:22:42;;;;;;;36.10;24.13;;;6.00;99.90;;;;;;5138922;28;20511;-63
2022/01/29 07:25:12;;;;;;;31.43;20.63;;;6.00;99.90;;;;;;5137527;28;20558;-63
2022/01/29 07:27:39;;;;;;;35.17;22.40;;;6.00;99.90;;;;;;5138021;28;20931;-63
2022/01/29 07:30:09;;;;;;;35.10;23.20;;;6.10;99.90;;;;;;5138649;27;20511;-63
2022/01/29 07:32:36;;;;;;;32.57;23.53;;;6.00;99.90;;;;;;5142366;27;20715;-63
2022/01/29 07:35:06;;;;;;;34.33;23.83;;;6.10;99.90;;;;;;5139632;27;20487;-63
2022/01/29 07:37:33;;;;;;;40.67;25.27;;;6.10;99.90;;;;;;5121492;28;20516;-63
2022/01/29 07:40:00;;;;;;;37.50;23.80;;;6.10;99.90;;;;;;5121434;28;21020;-63
2022/01/29 07:42:28;;;;;;;35.67;24.27;;;6.00;99.90;;;;;;5121176;28;20433;-63
2022/01/29 07:44:55;;;;;;;39.77;25.60;;;6.10;99.90;;;;;;5122339;27;20475;-63
2022/01/29 07:47:26;;;;;;;32.10;23.93;;;6.10;99.90;;;;;;5142161;27;20880;-63
2022/01/29 07:49:53;;;;;;;37.03;25.73;;;6.00;99.90;;;;;;5141431;27;20451;-63
2022/01/29 07:52:22;;;;;;;37.40;25.90;;;6.10;99.90;;;;;;5142027;27;20458;-63
2022/01/29 07:54:49;;;;;;;45.53;24.73;;;6.10;99.90;;;;;;5142403;27;20458;-63
2022/01/29 07:57:16;;;;;;;39.03;28.03;;;6.10;99.90;;;;;;5141945;27;20763;-63
2022/01/29 07:59:43;;;;;;;46.90;32.30;;;6.10;99.90;;;;;;5141771;27;20529;-63
2022/01/29 08:02:11;;;;;;;40.40;27.30;;;6.20;99.90;;;;;;5140263;27;20475;-63
2022/01/29 08:04:39;;;;;;;38.27;25.93;;;6.20;99.90;;;;;;5125725;27;20866;-63
2022/01/29 08:07:06;;;;;;;35.80;25.23;;;6.30;99.90;;;;;;5140130;27;20775;-63
2022/01/29 08:09:33;;;;;;;38.10;26.80;;;6.20;99.90;;;;;;5139609;27;20883;-63
2022/01/29 08:12:01;;;;;;;40.73;28.60;;;6.30;99.90;;;;;;5133621;27;20511;-63
2022/01/29 08:14:29;;;;;;;34.40;26.23;;;6.20;99.90;;;;;;5140089;27;20498;-63
2022/01/29 08:16:56;;;;;;;41.33;28.67;;;6.30;99.90;;;;;;5121160;28;20483;-63
2022/01/29 08:19:25;;;;;;;38.00;26.73;;;6.30;99.90;;;;;;5122384;27;20449;-63
2022/01/29 08:21:53;;;;;;;43.43;27.80;;;6.30;99.90;;;;;;5120854;28;20451;-63
2022/01/29 08:24:24;;;;;;;37.87;26.70;;;6.30;99.90;;;;;;5121005;27;20462;-63
2022/01/29 08:26:50;;;;;;;36.00;26.83;;;6.30;99.90;;;;;;5121138;28;20459;-63
2022/01/29 08:29:17;;;;;;;35.03;26.07;;;6.30;99.90;;;;;;5122339;27;20455;-63
2022/01/29 08:31:44;;;;;;;42.07;26.40;;;6.30;99.90;;;;;;5138261;27;20828;-62
2022/01/29 08:34:11;;;;;;;35.00;26.23;;;6.40;99.90;;;;;;5140546;27;20450;-63
2022/01/29 08:36:39;;;;;;;36.70;25.20;;;6.40;99.90;;;;;;5140971;27;20458;-63
2022/01/29 08:39:07;;;;;;;35.23;25.70;;;6.40;99.90;;;;;;5139278;27;20461;-63
2022/01/29 08:41:34;;;;;;;37.13;27.10;;;6.40;99.90;;;;;;5139478;27;20473;-63
2022/01/29 08:44:04;;;;;;;37.60;27.10;;;6.40;99.90;;;;;;5139465;27;20462;-63
2022/01/29 08:46:33;;;;;;;39.60;28.50;;;6.40;99.90;;;;;;5137875;27;20519;-63
2022/01/29 08:49:00;;;;;;;35.77;26.30;;;6.40;99.90;;;;;;5139397;27;20458;-63
2022/01/29 08:51:30;;;;;;;34.63;27.10;;;6.50;99.90;;;;;;5134777;27;20473;-63
2022/01/29 08:53:57;;;;;;;38.43;28.03;;;6.50;99.90;;;;;;5139483;27;20476;-63
2022/01/29 08:56:25;;;;;;;38.23;27.17;;;6.50;99.90;;;;;;5140145;27;20451;-62
2022/01/29 08:58:58;;;;;;;36.53;26.40;;;6.50;99.90;;;;;;5140068;27;20514;-62
2022/01/29 09:01:25;;;;;;;34.83;27.07;;;6.50;99.90;;;;;;5138759;27;20486;-62
2022/01/29 09:03:52;;;;;;;32.47;24.70;;;6.50;99.90;;;;;;5138892;27;20455;-62
2022/01/29 09:06:19;;;;;;;35.50;24.93;;;6.50;99.90;;;;;;5139145;27;20539;-62
2022/01/29 09:08:49;;;;;;;31.57;23.90;;;6.60;99.90;;;;;;5140532;27;20458;-62
2022/01/29 09:11:17;;;;;;;37.37;24.57;;;6.60;99.90;;;;;;5130434;27;20462;-62
2022/01/29 09:13:49;;;;;;;31.57;23.43;;;6.60;99.90;;;;;;5137341;27;20459;-62
2022/01/29 09:16:16;;;;;;;28.97;21.00;;;6.70;99.90;;;;;;5135270;27;20804;-62
2022/01/29 09:18:44;;;;;;;32.13;24.33;;;6.70;99.90;;;;;;5132261;27;20487;-61
2022/01/29 09:21:13;;;;;;;27.97;21.83;;;6.70;99.90;;;;;;5122908;27;20452;-61
2022/01/29 09:23:42;;;;;;;31.87;22.13;;;6.70;99.90;;;;;;5131673;27;20515;-61
2022/01/29 09:26:09;;;;;;;29.50;23.40;;;6.70;99.90;;;;;;5131309;27;20440;-61
2022/01/29 09:28:36;;;;;;;27.50;22.03;;;6.70;99.90;;;;;;5134399;27;20491;-61
2022/01/29 09:31:04;;;;;;;30.10;22.13;;;6.80;99.90;;;;;;5132627;27;20535;-61
2022/01/29 09:33:31;;;;;;;28.57;22.67;;;6.80;99.90;;;;;;5137660;27;20876;-61
2022/01/29 09:35:58;;;;;;;28.80;20.37;;;6.90;99.90;;;;;;5133389;27;20594;-61
2022/01/29 09:38:25;;;;;;;28.40;19.30;;;7.00;99.90;;;;;;5132568;27;20525;-61
2022/01/29 09:40:55;;;;;;;25.40;19.93;;;6.90;99.90;;;;;;5133564;27;20483;-61
2022/01/29 09:43:23;;;;;;;22.90;18.73;;;6.90;99.90;;;;;;5121529;27;20467;-61
2022/01/29 09:45:51;;;;;;;20.87;18.47;;;6.90;99.90;;;;;;5130580;27;20444;-61
2022/01/29 09:48:23;;;;;;;25.33;19.20;;;6.90;99.90;;;;;;5135027;27;20465;-61
2022/01/29 09:50:53;;;;;;;23.30;19.23;;;7.00;99.90;;;;;;5135681;27;20754;-61
2022/01/29 09:53:24;;;;;;;22.40;19.80;;;7.00;99.90;;;;;;5136694;27;20492;-61
2022/01/29 09:55:51;;;;;;;22.70;18.37;;;7.00;99.90;;;;;;5139471;27;20760;-61
2022/01/29 09:58:20;;;;;;;26.07;19.80;;;7.00;99.90;;;;;;5137614;27;20429;-61
2022/01/29 10:00:47;;;;;;;23.27;19.60;;;7.10;99.90;;;;;;5133689;27;20552;-61
2022/01/29 10:03:17;;;;;;;23.50;20.70;;;7.10;99.90;;;;;;5136824;27;20454;-61
2022/01/29 10:05:47;;;;;;;31.63;20.83;;;7.10;99.90;;;;;;5135279;27;20455;-61
2022/01/29 10:08:15;;;;;;;20.60;18.43;;;7.10;99.90;;;;;;5132875;27;20451;-61
2022/01/29 10:10:43;;;;;;;24.00;20.00;;;7.10;99.90;;;;;;5136219;27;20503;-61
2022/01/29 10:13:38;;;;;;;24.27;21.23;;;7.10;99.90;;;;;;5138455;27;20446;-61
2022/01/29 10:16:13;;;;;;;26.53;21.87;;;7.20;99.90;;;;;;5095440;27;20520;-62
2022/01/29 10:18:42;;;;;;;24.80;19.93;;;7.20;99.90;;;;;;5135745;27;20505;-61
2022/01/29 10:21:16;;;;;;;27.17;20.57;;;7.20;99.90;;;;;;5137809;27;20462;-62
2022/01/29 10:23:45;;;;;;;22.87;19.30;;;7.20;99.90;;;;;;5135490;27;20841;-62
2022/01/29 10:26:26;;;;;;;21.93;19.07;;;7.30;99.90;;;;;;5133897;27;20462;-62
2022/01/29 10:28:57;;;;;;;26.60;19.73;;;7.30;99.90;;;;;;5137005;27;20962;-62
2022/01/29 10:31:39;;;;;;;20.00;18.00;;;7.30;99.90;;;;;;5138467;27;20539;-63
2022/01/29 10:34:19;;;;;;;23.87;18.43;;;7.30;99.90;;;;;;5136873;27;20508;-63
2022/01/29 10:37:18;;;;;;;23.47;19.20;;;7.40;99.90;;;;;;5134944;27;20503;-62
2022/01/29 10:39:48;;;;;;;21.13;18.93;;;7.50;99.90;;;;;;5137247;27;20482;-63
2022/01/29 10:42:17;;;;;;;21.47;18.90;;;7.50;99.90;;;;;;5134281;27;20479;-63
2022/01/29 10:44:45;;;;;;;20.50;17.83;;;7.60;99.90;;;;;;5126183;27;20454;-63
2022/01/29 10:47:13;;;;;;;21.77;19.47;;;7.60;99.90;;;;;;5135904;27;20815;-63
2022/01/29 10:49:45;;;;;;;18.73;16.20;;;7.70;99.90;;;;;;5129033;27;20455;-62
2022/01/29 10:52:15;;;;;;;19.27;17.30;;;7.70;99.90;;;;;;5130330;27;20483;-62
2022/01/29 10:54:44;;;;;;;20.70;18.40;;;7.70;99.90;;;;;;5136863;27;20926;-62
2022/01/29 10:57:16;;;;;;;19.97;17.50;;;7.70;99.90;;;;;;5135325;27;20818;-62
2022/01/29 10:59:51;;;;;;;20.40;16.93;;;7.70;99.90;;;;;;5133979;27;20621;-62
2022/01/29 11:02:20;;;;;;;20.23;18.20;;;7.80;99.90;;;;;;5123323;28;20879;-62
2022/01/29 11:04:49;;;;;;;19.33;17.33;;;7.80;99.90;;;;;;5137374;27;20792;-62
2022/01/29 11:07:18;;;;;;;19.77;17.63;;;7.80;99.90;;;;;;5138129;28;20433;-61
2022/01/29 11:09:47;;;;;;;18.00;16.20;;;7.80;99.90;;;;;;5137477;28;20462;-62
2022/01/29 11:12:19;;;;;;;19.83;17.80;;;7.80;99.90;;;;;;5138407;28;20511;-61
2022/01/29 11:14:47;;;;;;;17.13;15.43;;;7.80;99.90;;;;;;5138402;28;20518;-62
2022/01/29 11:17:15;;;;;;;17.17;15.57;;;7.80;99.90;;;;;;5136602;28;20848;-62
2022/01/29 11:19:44;;;;;;;17.60;15.60;;;7.80;99.90;;;;;;5134973;28;20490;-61
2022/01/29 11:22:12;;;;;;;16.90;15.10;;;7.70;99.90;;;;;;5134172;28;20437;-61
2022/01/29 11:24:43;;;;;;;18.37;16.53;;;7.70;99.90;;;;;;5137202;28;20462;-61
2022/01/29 11:27:24;;;;;;;16.30;14.70;;;7.70;99.90;;;;;;5136363;28;20463;-62
2022/01/29 11:30:01;;;;;;;15.27;13.67;;;7.70;99.90;;;;;;5140678;27;20454;-62
2022/01/29 11:32:35;;;;;;;15.27;13.50;;;7.80;99.90;;;;;;5137614;28;20433;-61
2022/01/29 11:35:18;;;;;;;14.73;13.33;;;7.80;99.90;;;;;;5136076;28;20461;-61
2022/01/29 11:37:57;;;;;;;14.77;13.47;;;7.80;99.90;;;;;;5126998;28;20495;-63
2022/01/29 11:40:34;;;;;;;15.63;14.03;;;7.90;99.90;;;;;;5137140;28;20486;-63
2022/01/29 11:43:24;;;;;;;15.47;14.00;;;7.90;99.90;;;;;;5138145;28;20462;-63
2022/01/29 11:45:54;;;;;;;16.20;14.60;;;7.90;99.90;;;;;;5137382;28;20437;-63
2022/01/29 11:48:56;;;;;;;15.20;13.80;;;7.90;99.90;;;;;;5137113;28;20539;-63
2022/01/29 11:51:54;;;;;;;13.73;12.43;;;7.90;99.90;;;;;;5137517;28;20473;-61
2022/01/29 11:54:26;;;;;;;15.90;14.40;;;7.90;99.90;;;;;;5136506;28;20800;-61
2022/01/29 11:57:14;;;;;;;14.30;12.90;;;7.90;99.90;;;;;;5136110;28;20451;-61
2022/01/29 11:59:41;;;;;;;13.87;12.50;;;7.90;99.90;;;;;;5131050;28;20486;-61
2022/01/29 12:02:37;;;;;;;13.37;12.17;;;7.80;99.90;;;;;;5130343;28;20462;-61
2022/01/29 12:05:08;;;;;;;15.70;14.20;;;7.90;99.90;;;;;;5132901;28;20459;-61
2022/01/29 12:07:56;;;;;;;15.13;13.73;;;7.90;99.90;;;;;;5140499;27;20445;-61
2022/01/29 12:10:37;;;;;;;15.40;13.90;;;7.80;99.90;;;;;;5135783;28;20443;-61
2022/01/29 12:13:15;;;;;;;16.90;15.40;;;7.90;99.90;;;;;;5127005;28;20485;-61
2022/01/29 12:15:48;;;;;;;15.90;14.40;;;7.90;99.90;;;;;;5116886;28;20508;-61
2022/01/29 12:18:31;;;;;;;16.23;14.73;;;8.00;99.90;;;;;;5136063;27;20881;-61
2022/01/29 12:21:03;;;;;;;15.37;13.87;;;8.00;99.90;;;;;;5162118;27;20951;-61
2022/01/29 12:23:30;;;;;;;15.20;13.83;;;7.90;99.90;;;;;;5142716;27;20455;-62
2022/01/29 12:26:00;;;;;;;15.43;14.13;;;8.00;99.90;;;;;;5141030;27;20458;-61
2022/01/29 12:28:30;;;;;;;15.70;14.23;;;8.10;99.90;;;;;;5141230;27;20462;-61
2022/01/29 12:30:59;;;;;;;13.90;12.60;;;8.10;99.90;;;;;;5141275;27;20455;-61
2022/01/29 12:33:32;;;;;;;14.00;12.70;;;8.10;99.90;;;;;;5140782;27;20503;-61
2022/01/29 12:36:03;;;;;;;14.63;13.33;;;8.10;99.90;;;;;;5140703;27;20450;-61
2022/01/29 12:38:35;;;;;;;13.90;12.60;;;8.20;99.90;;;;;;5141470;27;20796;-62
2022/01/29 12:41:07;;;;;;;12.40;11.30;;;8.30;99.90;;;;;;5140928;27;20491;-62
2022/01/29 12:43:39;;;;;;;11.53;10.53;;;8.30;99.90;;;;;;5140604;27;20462;-62
2022/01/29 12:46:15;;;;;;;10.90;9.97;;;8.30;99.90;;;;;;5141165;27;20458;-62
2022/01/29 12:48:57;;;;;;;12.50;11.33;;;8.30;99.90;;;;;;5141220;27;20473;-62
2022/01/29 12:51:24;;;;;;;11.23;10.30;;;8.30;99.90;;;;;;5136752;27;20499;-62
2022/01/29 12:53:59;;;;;;;11.43;10.43;;;8.30;99.90;;;;;;5139165;27;20454;-62
2022/01/29 12:56:32;;;;;;;12.63;11.53;;;8.30;99.90;;;;;;5138784;27;20425;-62
2022/01/29 12:59:01;;;;;;;10.13;9.10;;;8.40;99.90;;;;;;5139113;27;20529;-62
2022/01/29 13:01:28;;;;;;;8.40;7.60;;;8.40;99.90;;;;;;5139613;27;20771;-62